sensor_id;sensor_type;location;lat;lon;timestamp;pressure;altitude;pressure_sealevel;temperature;humidity
41898;BME280;27576;53.366;-1.498;2024-03-02T00:00:14;97740.25;;;1.31;100.00
41898;BME280;27576;53.366;-1.498;2024-03-02T00:02:43;97765.03;;;1.51;100.00
41898;BME280;27576;53.366;-1.498;2024-03-02T00:05:13;97765.03;;;1.51;100.00
41898;BME280;27576;53.366;-1.498;2024-03-02T00:08:02;97765.03;;;1.52;100.00
41898;BME280;27576;53.366;-1.498;2024-03-02T00:10:39;97757.38;;;1.51;100.00
41898;BME280;27576;53.366;-1.498;2024-03-02T00:13:08;97757.41;;;1.55;100.00
41898;BME280;27576;53.366;-1.498;2024-03-02T00:15:48;97729.25;;;1.38;100.00
41898;BME280;27576;53.366;-1.498;2024-03-02T00:18:18;97762.53;;;1.58;100.00
41898;BME280;27576;53.366;-1.498;2024-03-02T00:20:44;97735.19;;;1.40;100.00
41898;BME280;27576;53.366;-1.498;2024-03-02T00:23:14;97766.78;;;1.61;100.00
41898;BME280;27576;53.366;-1.498;2024-03-02T00:28:20;97725.00;;;1.42;100.00
41898;BME280;27576;53.366;-1.498;2024-03-02T00:33:14;97709.66;;;1.40;100.00
41898;BME280;27576;53.366;-1.498;2024-03-02T00:35:39;97724.16;;;1.44;100.00
41898;BME280;27576;53.366;-1.498;2024-03-02T00:38:05;97731.88;;;1.54;100.00
41898;BME280;27576;53.366;-1.498;2024-03-02T00:40:31;97754.03;;;1.64;100.00
41898;BME280;27576;53.366;-1.498;2024-03-02T00:42:57;97750.63;;;1.65;100.00
41898;BME280;27576;53.366;-1.498;2024-03-02T00:45:23;97737.81;;;1.53;100.00
41898;BME280;27576;53.366;-1.498;2024-03-02T00:47:51;97765.97;;;1.66;100.00
41898;BME280;27576;53.366;-1.498;2024-03-02T00:50:17;97768.53;;;1.68;100.00
41898;BME280;27576;53.366;-1.498;2024-03-02T00:52:42;97732.69;;;1.48;100.00
41898;BME280;27576;53.366;-1.498;2024-03-02T00:55:08;97738.66;;;1.52;100.00
41898;BME280;27576;53.366;-1.498;2024-03-02T00:57:34;97762.56;;;1.69;100.00
41898;BME280;27576;53.366;-1.498;2024-03-02T01:00:00;97765.16;;;1.70;100.00
41898;BME280;27576;53.366;-1.498;2024-03-02T01:02:26;97717.38;;;1.46;100.00
41898;BME280;27576;53.366;-1.498;2024-03-02T01:04:51;97706.25;;;1.41;100.00
41898;BME280;27576;53.366;-1.498;2024-03-02T01:07:17;97732.72;;;1.56;100.00
41898;BME280;27576;53.366;-1.498;2024-03-02T01:09:42;97757.50;;;1.75;100.00
41898;BME280;27576;53.366;-1.498;2024-03-02T01:12:08;97736.19;;;1.65;100.00
41898;BME280;27576;53.366;-1.498;2024-03-02T01:14:33;97760.06;;;1.80;100.00
41898;BME280;27576;53.366;-1.498;2024-03-02T01:17:00;97737.03;;;1.67;100.00
41898;BME280;27576;53.366;-1.498;2024-03-02T01:19:28;97754.13;;;1.82;100.00
41898;BME280;27576;53.366;-1.498;2024-03-02T01:21:54;97714.88;;;1.60;100.00
41898;BME280;27576;53.366;-1.498;2024-03-02T01:24:19;97729.41;;;1.72;100.00
41898;BME280;27576;53.366;-1.498;2024-03-02T01:26:44;97718.31;;;1.67;100.00
41898;BME280;27576;53.366;-1.498;2024-03-02T01:29:10;97744.81;;;1.86;100.00
41898;BME280;27576;53.366;-1.498;2024-03-02T01:31:35;97714.06;;;1.63;100.00
41898;BME280;27576;53.366;-1.498;2024-03-02T01:34:01;97733.69;;;1.78;100.00
41898;BME280;27576;53.366;-1.498;2024-03-02T01:36:26;97732.84;;;1.79;100.00
41898;BME280;27576;53.366;-1.498;2024-03-02T01:38:51;97697.03;;;1.59;100.00
41898;BME280;27576;53.366;-1.498;2024-03-02T01:41:17;97708.94;;;1.63;100.00
41898;BME280;27576;53.366;-1.498;2024-03-02T01:43:42;97761.00;;;1.95;100.00
41898;BME280;27576;53.366;-1.498;2024-03-02T01:46:07;97719.22;;;1.74;100.00
41898;BME280;27576;53.366;-1.498;2024-03-02T01:48:34;97711.56;;;1.75;100.00
41898;BME280;27576;53.366;-1.498;2024-03-02T01:50:59;97732.94;;;1.97;100.00
41898;BME280;27576;53.366;-1.498;2024-03-02T01:53:25;97731.22;;;1.96;100.00
41898;BME280;27576;53.366;-1.498;2024-03-02T01:55:50;97710.72;;;1.84;100.00
41898;BME280;27576;53.366;-1.498;2024-03-02T01:58:16;97705.63;;;1.79;100.00
41898;BME280;27576;53.366;-1.498;2024-03-02T02:00:41;97729.50;;;1.93;100.00
41898;BME280;27576;53.366;-1.498;2024-03-02T02:03:07;97697.94;;;1.70;100.00
41898;BME280;27576;53.366;-1.498;2024-03-02T02:05:33;97731.16;;;1.84;100.00
41898;BME280;27576;53.366;-1.498;2024-03-02T02:08:01;97737.16;;;1.90;100.00
41898;BME280;27576;53.366;-1.498;2024-03-02T02:10:26;97738.84;;;1.91;100.00
41898;BME280;27576;53.366;-1.498;2024-03-02T02:12:52;97694.53;;;1.74;100.00
41898;BME280;27576;53.366;-1.498;2024-03-02T02:15:25;97703.91;;;1.74;100.00
41898;BME280;27576;53.366;-1.498;2024-03-02T02:17:51;97720.13;;;1.86;100.00
41898;BME280;27576;53.366;-1.498;2024-03-02T02:20:16;97734.63;;;1.96;100.00
41898;BME280;27576;53.366;-1.498;2024-03-02T02:23:02;97730.38;;;1.97;100.00
41898;BME280;27576;53.366;-1.498;2024-03-02T02:25:28;97726.13;;;1.98;100.00
41898;BME280;27576;53.366;-1.498;2024-03-02T02:27:55;97707.34;;;1.85;100.00
41898;BME280;27576;53.366;-1.498;2024-03-02T02:30:28;97724.41;;;2.00;100.00
41898;BME280;27576;53.366;-1.498;2024-03-02T02:32:54;97715.88;;;1.94;100.00
41898;BME280;27576;53.366;-1.498;2024-03-02T02:35:20;97684.34;;;1.80;100.00
41898;BME280;27576;53.366;-1.498;2024-03-02T02:37:46;97716.75;;;1.98;100.00
41898;BME280;27576;53.366;-1.498;2024-03-02T02:40:12;97724.41;;;2.04;100.00
41898;BME280;27576;53.366;-1.498;2024-03-02T02:42:38;97691.16;;;1.87;100.00
41898;BME280;27576;53.366;-1.498;2024-03-02T02:45:05;97718.50;;;2.05;100.00
41898;BME280;27576;53.366;-1.498;2024-03-02T02:47:31;97694.59;;;1.91;100.00
41898;BME280;27576;53.366;-1.498;2024-03-02T02:49:58;97686.03;;;1.84;100.00
41898;BME280;27576;53.366;-1.498;2024-03-02T02:52:24;97710.81;;;2.01;100.00
41898;BME280;27576;53.366;-1.498;2024-03-02T02:54:49;97705.69;;;2.04;100.00
41898;BME280;27576;53.366;-1.498;2024-03-02T02:57:15;97685.25;;;1.94;100.00
41898;BME280;27576;53.366;-1.498;2024-03-02T02:59:40;97682.72;;;1.98;100.00
41898;BME280;27576;53.366;-1.498;2024-03-02T03:02:05;97645.16;;;1.72;100.00
41898;BME280;27576;53.366;-1.498;2024-03-02T03:04:31;97704.84;;;2.08;100.00
41898;BME280;27576;53.366;-1.498;2024-03-02T03:06:57;97691.25;;;2.06;100.00
41898;BME280;27576;53.366;-1.498;2024-03-02T03:09:22;97663.94;;;1.85;100.00
41898;BME280;27576;53.366;-1.498;2024-03-02T03:11:47;97621.31;;;1.67;100.00
41898;BME280;27576;53.366;-1.498;2024-03-02T03:14:13;97691.25;;;2.06;100.00
41898;BME280;27576;53.366;-1.498;2024-03-02T03:16:38;97677.63;;;2.01;100.00
41898;BME280;27576;53.366;-1.498;2024-03-02T03:19:03;97662.25;;;1.91;100.00
41898;BME280;27576;53.366;-1.498;2024-03-02T03:21:29;97698.06;;;2.13;100.00
41898;BME280;27576;53.366;-1.498;2024-03-02T03:23:54;97683.59;;;2.06;100.00
41898;BME280;27576;53.366;-1.498;2024-03-02T03:26:20;97652.91;;;1.89;100.00
41898;BME280;27576;53.366;-1.498;2024-03-02T03:28:46;97678.47;;;2.06;100.00
41898;BME280;27576;53.366;-1.498;2024-03-02T03:31:11;97655.47;;;1.96;100.00
41898;BME280;27576;53.366;-1.498;2024-03-02T03:33:36;97624.78;;;1.78;100.00
41898;BME280;27576;53.366;-1.498;2024-03-02T03:36:02;97688.72;;;2.19;100.00
41898;BME280;27576;53.366;-1.498;2024-03-02T03:38:28;97666.56;;;2.05;100.00
41898;BME280;27576;53.366;-1.498;2024-03-02T03:40:54;97645.22;;;1.95;100.00
41898;BME280;27576;53.366;-1.498;2024-03-02T03:43:20;97635.00;;;1.90;100.00
41898;BME280;27576;53.366;-1.498;2024-03-02T03:45:45;97650.38;;;1.96;100.00
41898;BME280;27576;53.366;-1.498;2024-03-02T03:48:11;97669.09;;;2.08;100.00
41898;BME280;27576;53.366;-1.498;2024-03-02T03:50:36;97687.00;;;2.20;100.00
41898;BME280;27576;53.366;-1.498;2024-03-02T03:53:03;97669.13;;;2.14;100.00
41898;BME280;27576;53.366;-1.498;2024-03-02T03:55:28;97636.69;;;1.88;100.00
41898;BME280;27576;53.366;-1.498;2024-03-02T03:57:54;97647.78;;;2.00;100.00
41898;BME280;27576;53.366;-1.498;2024-03-02T04:00:19;97675.94;;;2.15;100.00
41898;BME280;27576;53.366;-1.498;2024-03-02T04:02:45;97587.28;;;1.60;100.00
41898;BME280;27576;53.366;-1.498;2024-03-02T04:05:10;97655.47;;;1.96;100.00
41898;BME280;27576;53.366;-1.498;2024-03-02T04:07:37;97683.59;;;2.15;100.00
41898;BME280;27576;53.366;-1.498;2024-03-02T04:10:15;97664.00;;;2.06;100.00
41898;BME280;27576;53.366;-1.498;2024-03-02T04:12:42;97693.84;;;2.21;100.00
41898;BME280;27576;53.366;-1.498;2024-03-02T04:15:07;97698.09;;;2.22;100.00
41898;BME280;27576;53.366;-1.498;2024-03-02T04:17:33;97696.38;;;2.22;100.00
41898;BME280;27576;53.366;-1.498;2024-03-02T04:20:01;97653.75;;;1.99;100.00
41898;BME280;27576;53.366;-1.498;2024-03-02T04:22:27;97699.78;;;2.23;100.00
41898;BME280;27576;53.366;-1.498;2024-03-02T04:24:52;97657.19;;;2.01;100.00
41898;BME280;27576;53.366;-1.498;2024-03-02T04:27:18;97673.38;;;2.09;100.00
41898;BME280;27576;53.366;-1.498;2024-03-02T04:29:44;97655.47;;;2.00;100.00
41898;BME280;27576;53.366;-1.498;2024-03-02T04:32:09;97681.03;;;2.12;100.00
41898;BME280;27576;53.366;-1.498;2024-03-02T04:34:34;97657.19;;;2.02;100.00
41898;BME280;27576;53.366;-1.498;2024-03-02T04:37:00;97698.09;;;2.25;100.00
41898;BME280;27576;53.366;-1.498;2024-03-02T04:39:25;97684.44;;;2.15;100.00
41898;BME280;27576;53.366;-1.498;2024-03-02T04:41:51;97652.91;;;2.03;100.00
41898;BME280;27576;53.366;-1.498;2024-03-02T04:44:17;97681.91;;;2.18;100.00
41898;BME280;27576;53.366;-1.498;2024-03-02T04:46:42;97682.75;;;2.19;100.00
41898;BME280;27576;53.366;-1.498;2024-03-02T04:49:07;97660.59;;;2.06;100.00
41898;BME280;27576;53.366;-1.498;2024-03-02T04:51:33;97664.84;;;2.07;100.00
41898;BME280;27576;53.366;-1.498;2024-03-02T04:53:58;97676.78;;;2.14;100.00
41898;BME280;27576;53.366;-1.498;2024-03-02T04:56:24;97676.78;;;2.14;100.00
41898;BME280;27576;53.366;-1.498;2024-03-02T04:58:58;97695.56;;;2.25;100.00
41898;BME280;27576;53.366;-1.498;2024-03-02T05:01:23;97649.50;;;1.98;100.00
41898;BME280;27576;53.366;-1.498;2024-03-02T05:03:49;97684.47;;;2.18;100.00
41898;BME280;27576;53.366;-1.498;2024-03-02T05:06:14;97664.00;;;2.05;100.00
41898;BME280;27576;53.366;-1.498;2024-03-02T05:08:40;97681.03;;;2.15;100.00
41898;BME280;27576;53.366;-1.498;2024-03-02T05:11:05;97668.28;;;2.09;100.00
41898;BME280;27576;53.366;-1.498;2024-03-02T05:13:49;97675.94;;;2.10;100.00
41898;BME280;27576;53.366;-1.498;2024-03-02T05:16:14;97682.75;;;2.19;100.00
41898;BME280;27576;53.366;-1.498;2024-03-02T05:18:40;97666.56;;;2.12;100.00
41898;BME280;27576;53.366;-1.498;2024-03-02T05:21:05;97655.47;;;1.98;100.00
41898;BME280;27576;53.366;-1.498;2024-03-02T05:23:31;97687.03;;;2.25;100.00
41898;BME280;27576;53.366;-1.498;2024-03-02T05:25:56;97693.00;;;2.28;100.00
41898;BME280;27576;53.366;-1.498;2024-03-02T05:28:21;97660.59;;;2.06;100.00
41898;BME280;27576;53.366;-1.498;2024-03-02T05:30:47;97668.22;;;2.04;100.00
41898;BME280;27576;53.366;-1.498;2024-03-02T05:33:12;97703.22;;;2.28;100.00
41898;BME280;27576;53.366;-1.498;2024-03-02T05:35:38;97686.16;;;2.15;100.00
41898;BME280;27576;53.366;-1.498;2024-03-02T05:38:03;97709.19;;;2.29;100.00
41898;BME280;27576;53.366;-1.498;2024-03-02T05:40:28;97698.09;;;2.25;100.00
41898;BME280;27576;53.366;-1.498;2024-03-02T05:42:54;97663.13;;;2.07;100.00
41898;BME280;27576;53.366;-1.498;2024-03-02T05:45:19;97696.41;;;2.21;100.00
41898;BME280;27576;53.366;-1.498;2024-03-02T05:47:45;97685.31;;;2.20;100.00
41898;BME280;27576;53.366;-1.498;2024-03-02T05:50:10;97669.97;;;2.13;100.00
41898;BME280;27576;53.366;-1.498;2024-03-02T05:52:36;97629.06;;;1.90;100.00
41898;BME280;27576;53.366;-1.498;2024-03-02T05:55:01;97668.28;;;2.09;100.00
41898;BME280;27576;53.366;-1.498;2024-03-02T05:57:26;97698.09;;;2.27;100.00
41898;BME280;27576;53.366;-1.498;2024-03-02T06:00:12;97656.34;;;2.05;100.00
41898;BME280;27576;53.366;-1.498;2024-03-02T06:02:41;97703.22;;;2.28;100.00
41898;BME280;27576;53.366;-1.498;2024-03-02T06:05:07;97690.44;;;2.28;100.00
41898;BME280;27576;53.366;-1.498;2024-03-02T06:07:32;97677.63;;;2.19;100.00
41898;BME280;27576;53.366;-1.498;2024-03-02T06:09:58;97658.88;;;2.02;100.00
41898;BME280;27576;53.366;-1.498;2024-03-02T06:12:24;97693.00;;;2.25;100.00
41898;BME280;27576;53.366;-1.498;2024-03-02T06:14:49;97707.47;;;2.29;100.00
41898;BME280;27576;53.366;-1.498;2024-03-02T06:17:14;97707.47;;;2.29;100.00
41898;BME280;27576;53.366;-1.498;2024-03-02T06:19:40;97707.47;;;2.29;100.00
41898;BME280;27576;53.366;-1.498;2024-03-02T06:22:07;97706.63;;;2.29;100.00
41898;BME280;27576;53.366;-1.498;2024-03-02T06:24:36;97716.84;;;2.29;100.00
41898;BME280;27576;53.366;-1.498;2024-03-02T06:27:01;97669.09;;;2.02;100.00
41898;BME280;27576;53.366;-1.498;2024-03-02T06:29:27;97674.22;;;2.05;100.00
41898;BME280;27576;53.366;-1.498;2024-03-02T06:31:53;97706.59;;;2.19;100.00
41898;BME280;27576;53.366;-1.498;2024-03-02T06:34:19;97710.00;;;2.23;100.00
41898;BME280;27576;53.366;-1.498;2024-03-02T06:36:44;97689.53;;;2.08;100.00
41898;BME280;27576;53.366;-1.498;2024-03-02T06:39:09;97675.91;;;2.03;100.00
41898;BME280;27576;53.366;-1.498;2024-03-02T06:41:35;97671.63;;;2.00;100.00
41898;BME280;27576;53.366;-1.498;2024-03-02T06:44:00;97694.66;;;2.14;100.00
41898;BME280;27576;53.366;-1.498;2024-03-02T06:46:26;97586.38;;;1.49;100.00
41898;BME280;27576;53.366;-1.498;2024-03-02T06:48:51;97715.13;;;2.23;100.00
41898;BME280;27576;53.366;-1.498;2024-03-02T06:51:16;97721.09;;;2.30;100.00
41898;BME280;27576;53.366;-1.498;2024-03-02T06:53:42;97716.84;;;2.21;100.00
41898;BME280;27576;53.366;-1.498;2024-03-02T06:56:07;97712.56;;;2.23;100.00
41898;BME280;27576;53.366;-1.498;2024-03-02T06:58:33;97705.72;;;2.16;100.00
41898;BME280;27576;53.366;-1.498;2024-03-02T07:00:59;97711.72;;;2.21;100.00
41898;BME280;27576;53.366;-1.498;2024-03-02T07:03:25;97688.66;;;1.98;100.00
41898;BME280;27576;53.366;-1.498;2024-03-02T07:05:51;97692.94;;;2.08;100.00
41898;BME280;27576;53.366;-1.498;2024-03-02T07:08:16;97691.22;;;2.04;100.00
41898;BME280;27576;53.366;-1.498;2024-03-02T07:10:42;97730.44;;;2.28;100.00
41898;BME280;27576;53.366;-1.498;2024-03-02T07:13:07;97709.13;;;2.15;100.00
41898;BME280;27576;53.366;-1.498;2024-03-02T07:15:33;97731.31;;;2.31;100.00
41898;BME280;27576;53.366;-1.498;2024-03-02T07:18:10;97700.63;;;2.13;100.00
41898;BME280;27576;53.366;-1.498;2024-03-02T07:20:36;97716.84;;;2.30;100.00
41898;BME280;27576;53.366;-1.498;2024-03-02T07:23:04;97654.56;;;1.87;100.00
41898;BME280;27576;53.366;-1.498;2024-03-02T07:25:29;97724.50;;;2.27;100.00
41898;BME280;27576;53.366;-1.498;2024-03-02T07:27:55;97719.41;;;2.26;100.00
41898;BME280;27576;53.366;-1.498;2024-03-02T07:30:21;97700.63;;;2.13;100.00
41898;BME280;27576;53.366;-1.498;2024-03-02T07:32:46;97736.47;;;2.42;100.00
41898;BME280;27576;53.366;-1.498;2024-03-02T07:35:12;97732.19;;;2.42;100.00
41898;BME280;27576;53.366;-1.498;2024-03-02T07:37:39;97723.69;;;2.40;100.00
41898;BME280;27576;53.366;-1.498;2024-03-02T07:40:05;97687.00;;;2.20;100.00
41898;BME280;27576;53.366;-1.498;2024-03-02T07:42:30;97706.63;;;2.32;100.00
41898;BME280;27576;53.366;-1.498;2024-03-02T07:44:57;97687.03;;;2.25;100.00
41898;BME280;27576;53.366;-1.498;2024-03-02T07:47:23;97721.13;;;2.42;100.00
41898;BME280;27576;53.366;-1.498;2024-03-02T07:49:48;97704.09;;;2.33;100.00
41898;BME280;27576;53.366;-1.498;2024-03-02T07:52:14;97708.34;;;2.34;100.00
41898;BME280;27576;53.366;-1.498;2024-03-02T07:54:39;97720.28;;;2.41;100.00
41898;BME280;27576;53.366;-1.498;2024-03-02T07:57:05;97726.25;;;2.50;100.00
41898;BME280;27576;53.366;-1.498;2024-03-02T07:59:30;97695.56;;;2.33;100.00
41898;BME280;27576;53.366;-1.498;2024-03-02T08:01:55;97703.22;;;2.34;100.00
41898;BME280;27576;53.366;-1.498;2024-03-02T08:04:21;97706.63;;;2.33;100.00
41898;BME280;27576;53.366;-1.498;2024-03-02T08:06:46;97719.41;;;2.39;100.00
41898;BME280;27576;53.366;-1.498;2024-03-02T08:09:12;97698.97;;;2.33;100.00
41898;BME280;27576;53.366;-1.498;2024-03-02T08:11:37;97714.31;;;2.42;100.00
41898;BME280;27576;53.366;-1.498;2024-03-02T08:14:03;97693.84;;;2.32;100.00
41898;BME280;27576;53.366;-1.498;2024-03-02T08:16:29;97697.25;;;2.26;100.00
41898;BME280;27576;53.366;-1.498;2024-03-02T08:18:55;97732.25;;;2.52;100.00
41898;BME280;27576;53.366;-1.498;2024-03-02T08:21:23;97658.06;;;2.09;100.00
41898;BME280;27576;53.366;-1.498;2024-03-02T08:23:48;97722.84;;;2.49;100.00
41898;BME280;27576;53.366;-1.498;2024-03-02T08:26:14;97736.50;;;2.60;100.00
41898;BME280;27576;53.366;-1.498;2024-03-02T08:28:39;97716.03;;;2.42;100.00
41898;BME280;27576;53.366;-1.498;2024-03-02T08:31:08;97727.94;;;2.46;100.00
41898;BME280;27576;53.366;-1.498;2024-03-02T08:33:33;97722.84;;;2.49;100.00
41898;BME280;27576;53.366;-1.498;2024-03-02T08:35:59;97716.88;;;2.49;100.00
41898;BME280;27576;53.366;-1.498;2024-03-02T08:38:25;97731.41;;;2.60;100.00
41898;BME280;27576;53.366;-1.498;2024-03-02T08:40:50;97738.22;;;2.66;100.00
41898;BME280;27576;53.366;-1.498;2024-03-02T08:43:16;97738.22;;;2.72;100.00
41898;BME280;27576;53.366;-1.498;2024-03-02T08:45:42;97733.13;;;2.72;100.00
41898;BME280;27576;53.366;-1.498;2024-03-02T08:48:08;97730.56;;;2.77;100.00
41898;BME280;27576;53.366;-1.498;2024-03-02T08:50:34;97743.34;;;2.89;100.00
41898;BME280;27576;53.366;-1.498;2024-03-02T08:53:00;97695.59;;;2.66;100.00
41898;BME280;27576;53.366;-1.498;2024-03-02T08:55:26;97748.47;;;3.00;100.00
41898;BME280;27576;53.366;-1.498;2024-03-02T08:57:51;97732.28;;;2.91;100.00
41898;BME280;27576;53.366;-1.498;2024-03-02T09:00:17;97714.38;;;2.79;100.00
41898;BME280;27576;53.366;-1.498;2024-03-02T09:02:44;97722.88;;;2.84;100.00
41898;BME280;27576;53.366;-1.498;2024-03-02T09:05:09;97736.53;;;2.97;100.00
41898;BME280;27576;53.366;-1.498;2024-03-02T09:07:35;97739.06;;;2.99;100.00
41898;BME280;27576;53.366;-1.498;2024-03-02T09:10:00;97739.94;;;2.91;100.00
41898;BME280;27576;53.366;-1.498;2024-03-02T09:12:26;97730.56;;;2.93;100.00
41898;BME280;27576;53.366;-1.498;2024-03-02T09:14:51;97703.25;;;2.71;100.00
41898;BME280;27576;53.366;-1.498;2024-03-02T09:17:16;97725.47;;;2.95;100.00
41898;BME280;27576;53.366;-1.498;2024-03-02T09:19:42;97688.78;;;2.76;100.00
41898;BME280;27576;53.366;-1.498;2024-03-02T09:22:07;97713.50;;;2.99;100.00
41898;BME280;27576;53.366;-1.498;2024-03-02T09:24:33;97686.25;;;2.84;100.00
41898;BME280;27576;53.366;-1.498;2024-03-02T09:26:59;97687.09;;;2.92;100.00
41898;BME280;27576;53.366;-1.498;2024-03-02T09:29:24;97681.13;;;2.91;100.00
41898;BME280;27576;53.366;-1.498;2024-03-02T09:31:50;97695.59;;;3.12;100.00
41898;BME280;27576;53.366;-1.498;2024-03-02T09:34:16;97664.88;;;3.02;100.00
41898;BME280;27576;53.366;-1.498;2024-03-02T09:36:41;97663.19;;;3.04;100.00
41898;BME280;27576;53.366;-1.498;2024-03-02T09:39:07;97716.03;;;3.32;100.00
41898;BME280;27576;53.366;-1.498;2024-03-02T09:41:38;97676.81;;;3.18;100.00
41898;BME280;27576;53.366;-1.498;2024-03-02T09:44:04;97705.78;;;3.32;100.00
41898;BME280;27576;53.366;-1.498;2024-03-02T09:46:30;97680.22;;;3.14;100.00
41898;BME280;27576;53.366;-1.498;2024-03-02T09:48:56;97649.56;;;3.00;100.00
41898;BME280;27576;53.366;-1.498;2024-03-02T09:51:22;97659.78;;;3.05;100.00
41898;BME280;27576;53.366;-1.498;2024-03-02T09:53:48;97620.59;;;2.84;100.00
41898;BME280;27576;53.366;-1.498;2024-03-02T09:56:14;97669.16;;;3.09;100.00
41898;BME280;27576;53.366;-1.498;2024-03-02T09:58:41;97661.50;;;3.07;100.00
41898;BME280;27576;53.366;-1.498;2024-03-02T10:01:07;97680.22;;;3.17;100.00
41898;BME280;27576;53.366;-1.498;2024-03-02T10:03:33;97694.69;;;3.26;100.00
41898;BME280;27576;53.366;-1.498;2024-03-02T10:08:46;97659.78;;;3.03;100.00
41898;BME280;27576;53.366;-1.498;2024-03-02T10:11:34;97693.03;;;3.23;100.00
41898;BME280;27576;53.366;-1.498;2024-03-02T10:14:11;97651.28;;;3.03;100.00
41898;BME280;27576;53.366;-1.498;2024-03-02T10:16:42;97692.16;;;3.30;100.00
41898;BME280;27576;53.366;-1.498;2024-03-02T10:19:17;97690.44;;;3.35;100.00
41898;BME280;27576;53.366;-1.498;2024-03-02T10:21:53;97664.00;;;3.18;100.00
41898;BME280;27576;53.366;-1.498;2024-03-02T10:24:20;97691.25;;;3.37;100.00
41898;BME280;27576;53.366;-1.498;2024-03-02T10:26:46;97666.56;;;3.27;100.00
41898;BME280;27576;53.366;-1.498;2024-03-02T10:29:12;97681.06;;;3.34;100.00
41898;BME280;27576;53.366;-1.498;2024-03-02T10:31:38;97685.28;;;3.40;100.00
41898;BME280;27576;53.366;-1.498;2024-03-02T10:34:05;97672.53;;;3.31;100.00
41898;BME280;27576;53.366;-1.498;2024-03-02T10:36:34;97673.38;;;3.33;100.00
41898;BME280;27576;53.366;-1.498;2024-03-02T10:39:04;97685.28;;;3.41;100.00
41898;BME280;27576;53.366;-1.498;2024-03-02T10:41:42;97684.44;;;3.41;100.00
41898;BME280;27576;53.366;-1.498;2024-03-02T10:44:09;97691.25;;;3.47;100.00
41898;BME280;27576;53.366;-1.498;2024-03-02T10:46:36;97691.25;;;3.48;100.00
41898;BME280;27576;53.366;-1.498;2024-03-02T10:49:04;97658.03;;;3.28;100.00
41898;BME280;27576;53.366;-1.498;2024-03-02T10:51:31;97658.00;;;3.36;100.00
41898;BME280;27576;53.366;-1.498;2024-03-02T10:54:00;97675.84;;;3.62;100.00
41898;BME280;27576;53.366;-1.498;2024-03-02T10:56:40;97669.84;;;3.61;100.00
41898;BME280;27576;53.366;-1.498;2024-03-02T10:59:37;97680.06;;;3.69;100.00
41898;BME280;27576;53.366;-1.498;2024-03-02T11:02:05;97669.03;;;3.62;100.00
41898;BME280;27576;53.366;-1.498;2024-03-02T11:04:34;97651.09;;;3.59;100.00
41898;BME280;27576;53.366;-1.498;2024-03-02T11:07:02;97680.06;;;3.75;100.00
41898;BME280;27576;53.366;-1.498;2024-03-02T11:09:29;97670.66;;;3.73;100.00
41898;BME280;27576;53.366;-1.498;2024-03-02T11:12:17;97678.34;;;3.79;100.00
41898;BME280;27576;53.366;-1.498;2024-03-02T11:14:44;97648.53;;;3.64;100.00
41898;BME280;27576;53.366;-1.498;2024-03-02T11:17:10;97668.09;;;3.77;100.00
41898;BME280;27576;53.366;-1.498;2024-03-02T11:19:38;97658.69;;;3.81;100.00
41898;BME280;27576;53.366;-1.498;2024-03-02T11:22:04;97648.41;;;3.93;100.00
41898;BME280;27576;53.366;-1.498;2024-03-02T11:24:31;97678.09;;;4.29;100.00
41898;BME280;27576;53.366;-1.498;2024-03-02T11:26:59;97649.91;;;4.26;100.00
41898;BME280;27576;53.366;-1.498;2024-03-02T11:32:21;97660.91;;;4.45;100.00
41898;BME280;27576;53.366;-1.498;2024-03-02T11:34:50;97644.78;;;4.26;100.00
41898;BME280;27576;53.366;-1.498;2024-03-02T11:37:19;97666.06;;;4.39;100.00
41898;BME280;27576;53.366;-1.498;2024-03-02T11:39:50;97637.97;;;4.22;100.00
41898;BME280;27576;53.366;-1.498;2024-03-02T11:42:16;97660.94;;;4.39;100.00
41898;BME280;27576;53.366;-1.498;2024-03-02T11:44:46;97625.97;;;4.24;100.00
41898;BME280;27576;53.366;-1.498;2024-03-02T11:47:14;97657.44;;;4.48;100.00
41898;BME280;27576;53.366;-1.498;2024-03-02T11:52:13;97651.38;;;4.61;100.00
41898;BME280;27576;53.366;-1.498;2024-03-02T11:54:40;97649.69;;;4.60;100.00
41898;BME280;27576;53.366;-1.498;2024-03-02T11:57:11;97612.22;;;4.40;100.00
41898;BME280;27576;53.366;-1.498;2024-03-02T11:59:37;97637.72;;;4.56;100.00
41898;BME280;27576;53.366;-1.498;2024-03-02T12:02:02;97652.22;;;4.61;100.00
41898;BME280;27576;53.366;-1.498;2024-03-02T12:04:29;97648.81;;;4.61;100.00
41898;BME280;27576;53.366;-1.498;2024-03-02T12:06:55;97624.97;;;4.47;100.00
41898;BME280;27576;53.366;-1.498;2024-03-02T12:09:22;97617.31;;;4.45;100.00
41898;BME280;27576;53.366;-1.498;2024-03-02T12:11:47;97609.63;;;4.45;100.00
41898;BME280;27576;53.366;-1.498;2024-03-02T12:14:13;97616.41;;;4.51;100.00
41898;BME280;27576;53.366;-1.498;2024-03-02T12:16:38;97614.69;;;4.50;100.00
41898;BME280;27576;53.366;-1.498;2024-03-02T12:19:05;97602.78;;;4.46;100.00
41898;BME280;27576;53.366;-1.498;2024-03-02T12:21:31;97636.78;;;4.67;100.00
41898;BME280;27576;53.366;-1.498;2024-03-02T12:23:57;97618.81;;;4.69;100.00
41898;BME280;27576;53.366;-1.498;2024-03-02T12:26:22;97628.16;;;4.76;100.00
41898;BME280;27576;53.366;-1.498;2024-03-02T12:28:48;97620.47;;;4.76;100.00
41898;BME280;27576;53.366;-1.498;2024-03-02T12:31:14;97566.88;;;4.46;100.00
41898;BME280;27576;53.366;-1.498;2024-03-02T12:33:40;97610.28;;;4.67;100.00
41898;BME280;27576;53.366;-1.498;2024-03-02T12:36:09;97613.59;;;4.78;100.00
41898;BME280;27576;53.366;-1.498;2024-03-02T12:38:37;97613.53;;;4.86;100.00
41898;BME280;27576;53.366;-1.498;2024-03-02T12:41:03;97613.47;;;4.90;100.00
41898;BME280;27576;53.366;-1.498;2024-03-02T12:43:31;97615.13;;;4.99;100.00
41898;BME280;27576;53.366;-1.498;2024-03-02T12:45:56;97588.63;;;4.97;100.00
41898;BME280;27576;53.366;-1.498;2024-03-02T12:48:23;97604.38;;;5.44;100.00
41898;BME280;27576;53.366;-1.498;2024-03-02T12:50:49;97591.34;;;5.57;100.00
41898;BME280;27576;53.366;-1.498;2024-03-02T12:53:15;97600.41;;;5.84;100.00
41898;BME280;27576;53.366;-1.498;2024-03-02T12:55:41;97609.28;;;6.27;100.00
41898;BME280;27576;53.366;-1.498;2024-03-02T12:58:07;97588.41;;;6.47;100.00
41898;BME280;27576;53.366;-1.498;2024-03-02T13:00:32;97614.44;;;6.79;100.00